createdAt,value
2018-07-28T00:00:49.178Z,27.63
2018-07-28T00:01:49.184Z,27.6
2018-07-28T00:02:49.263Z,27.59
2018-07-28T00:03:49.188Z,27.6
2018-07-28T00:04:49.250Z,27.59
2018-07-28T00:05:49.193Z,27.58
2018-07-28T00:06:49.152Z,27.58
2018-07-28T00:07:49.213Z,27.57
2018-07-28T00:08:49.175Z,27.56
2018-07-28T00:09:49.199Z,27.54
2018-07-28T00:10:49.157Z,27.54
2018-07-28T00:11:49.167Z,27.55
2018-07-28T00:12:49.134Z,27.54
2018-07-28T00:13:49.271Z,27.54
2018-07-28T00:14:49.133Z,27.54
2018-07-28T00:15:49.164Z,27.51
2018-07-28T00:16:49.480Z,27.51
2018-07-28T00:17:49.280Z,27.48
2018-07-28T00:18:49.124Z,27.47
2018-07-28T00:19:49.121Z,27.46
2018-07-28T00:20:49.209Z,27.45
2018-07-28T00:21:49.135Z,27.45
2018-07-28T00:22:49.122Z,27.45
2018-07-28T00:23:49.135Z,27.43
2018-07-28T00:24:49.581Z,27.42
2018-07-28T00:25:49.139Z,27.4
2018-07-28T00:26:49.115Z,27.4
2018-07-28T00:27:49.238Z,27.36
2018-07-28T00:28:49.123Z,27.36
2018-07-28T00:29:49.124Z,27.36
2018-07-28T00:30:49.117Z,27.34
2018-07-28T00:31:49.123Z,27.31
2018-07-28T00:32:49.213Z,27.32
2018-07-28T00:33:49.136Z,27.31
2018-07-28T00:34:49.131Z,27.31
2018-07-28T00:35:49.638Z,27.3
2018-07-28T00:36:49.133Z,27.28
2018-07-28T00:37:49.198Z,27.26
2018-07-28T00:38:49.162Z,27.27
2018-07-28T00:39:49.146Z,27.23
2018-07-28T00:40:49.259Z,27.2
2018-07-28T00:41:49.293Z,27.21
2018-07-28T00:42:49.141Z,27.19
2018-07-28T00:43:49.168Z,27.16
2018-07-28T00:44:49.126Z,27.15
2018-07-28T00:45:49.137Z,27.15
2018-07-28T00:46:49.116Z,27.13
2018-07-28T00:47:49.121Z,27.13
2018-07-28T00:48:49.168Z,27.11
2018-07-28T00:49:49.132Z,27.11
2018-07-28T00:50:49.155Z,27.1
2018-07-28T00:51:49.147Z,27.09
2018-07-28T00:52:49.132Z,27.09
2018-07-28T00:53:49.327Z,27.07
2018-07-28T00:54:49.130Z,27.06
2018-07-28T00:55:49.134Z,27.05
2018-07-28T00:56:49.140Z,27.03
2018-07-28T00:57:49.148Z,27.02
2018-07-28T00:58:49.168Z,27.03
2018-07-28T00:59:49.149Z,27.02
2018-07-28T01:00:49.152Z,27.01
2018-07-28T01:01:49.315Z,27
2018-07-28T01:02:49.124Z,26.96
2018-07-28T01:03:49.151Z,26.95
2018-07-28T01:04:49.132Z,26.92
2018-07-28T01:05:49.153Z,26.93
2018-07-28T01:06:49.171Z,26.92
2018-07-28T01:07:49.125Z,26.9
2018-07-28T01:08:49.149Z,26.87
2018-07-28T01:09:49.193Z,26.83
2018-07-28T01:10:49.119Z,26.82
2018-07-28T01:11:49.105Z,26.8
2018-07-28T01:12:49.497Z,26.78
2018-07-28T01:13:49.104Z,26.81
2018-07-28T01:14:49.177Z,26.77
2018-07-28T01:15:49.235Z,26.77
2018-07-28T01:16:49.100Z,26.78
2018-07-28T01:17:49.117Z,26.76
2018-07-28T01:18:49.142Z,26.76
2018-07-28T01:19:49.151Z,26.72
2018-07-28T01:20:49.159Z,26.75
2018-07-28T01:21:49.164Z,26.7
2018-07-28T01:22:49.180Z,26.69
2018-07-28T01:23:49.119Z,26.65
2018-07-28T01:24:49.160Z,26.65
2018-07-28T01:25:49.141Z,26.65
2018-07-28T01:26:49.106Z,26.65
2018-07-28T01:27:49.171Z,26.64
2018-07-28T01:28:49.150Z,26.64
2018-07-28T01:29:49.331Z,26.65
2018-07-28T01:30:49.227Z,26.64
2018-07-28T01:31:49.135Z,26.64
2018-07-28T01:32:49.185Z,26.63
2018-07-28T01:33:49.343Z,26.62
2018-07-28T01:34:49.101Z,26.62
2018-07-28T01:35:49.110Z,26.6
2018-07-28T01:36:49.181Z,26.59
2018-07-28T01:37:49.120Z,26.59
2018-07-28T01:38:49.154Z,26.59
2018-07-28T01:39:49.098Z,26.59
2018-07-28T01:40:49.164Z,26.56
2018-07-28T01:41:49.148Z,26.54
2018-07-28T01:42:49.182Z,26.55
2018-07-28T01:43:49.154Z,26.56
2018-07-28T01:44:49.110Z,26.52
2018-07-28T01:45:49.119Z,26.5
2018-07-28T01:46:49.207Z,26.5
2018-07-28T01:47:49.236Z,26.51
2018-07-28T01:48:49.204Z,26.49
2018-07-28T01:49:49.164Z,26.46
2018-07-28T01:50:49.132Z,26.46
2018-07-28T01:51:49.150Z,26.48
2018-07-28T01:52:49.101Z,26.46
2018-07-28T01:53:49.152Z,26.47
2018-07-28T01:54:49.131Z,26.44
2018-07-28T01:55:49.131Z,26.43
2018-07-28T01:56:49.121Z,26.41
2018-07-28T01:57:49.123Z,26.43
2018-07-28T01:58:49.133Z,26.4
2018-07-28T01:59:50.124Z,26.42
2018-07-28T02:00:49.137Z,26.41
2018-07-28T02:01:49.124Z,26.39
2018-07-28T02:02:49.145Z,26.38
2018-07-28T02:03:49.180Z,26.35
2018-07-28T02:04:49.136Z,26.33
2018-07-28T02:05:49.128Z,26.34
2018-07-28T02:06:49.130Z,26.32
2018-07-28T02:07:49.123Z,26.33
2018-07-28T02:08:49.140Z,26.31
2018-07-28T02:09:49.118Z,26.31
2018-07-28T02:10:49.765Z,26.27
2018-07-28T02:11:49.133Z,26.27
2018-07-28T02:12:49.141Z,26.27
2018-07-28T02:13:49.139Z,26.28
2018-07-28T02:14:49.162Z,26.27
2018-07-28T02:15:49.130Z,26.27
2018-07-28T02:16:49.113Z,26.23
2018-07-28T02:17:49.144Z,26.24
2018-07-28T02:18:49.130Z,26.24
2018-07-28T02:19:49.264Z,26.21
2018-07-28T02:20:49.169Z,26.19
2018-07-28T02:21:49.166Z,26.17
2018-07-28T02:22:49.152Z,26.15
2018-07-28T02:23:49.151Z,26.15
2018-07-28T02:24:49.131Z,26.15
2018-07-28T02:25:49.163Z,26.14
2018-07-28T02:26:49.129Z,26.13
2018-07-28T02:27:49.135Z,26.13
2018-07-28T02:28:49.487Z,26.12
2018-07-28T02:29:49.167Z,26.12
2018-07-28T02:30:49.431Z,26.13
2018-07-28T02:31:49.189Z,26.09
2018-07-28T02:32:49.143Z,26.11
2018-07-28T02:33:49.177Z,26.09
2018-07-28T02:34:49.123Z,26.08
2018-07-28T02:35:49.256Z,26.09
2018-07-28T02:36:49.328Z,26.07
2018-07-28T02:37:49.109Z,26.06
2018-07-28T02:38:49.124Z,26.06
2018-07-28T02:39:49.319Z,26.03
2018-07-28T02:40:49.120Z,26.02
2018-07-28T02:41:49.138Z,26.03
2018-07-28T02:42:49.145Z,25.99
2018-07-28T02:43:49.126Z,25.98
2018-07-28T02:44:49.185Z,25.96
2018-07-28T02:45:49.154Z,25.94
2018-07-28T02:46:49.166Z,25.94
2018-07-28T02:47:49.197Z,25.94
2018-07-28T02:48:49.278Z,25.91
2018-07-28T02:49:49.165Z,25.91
2018-07-28T02:50:49.465Z,25.91
2018-07-28T02:51:49.164Z,25.9
2018-07-28T02:52:49.176Z,25.89
2018-07-28T02:53:49.181Z,25.85
2018-07-28T02:54:49.151Z,25.83
2018-07-28T02:55:49.157Z,25.83
2018-07-28T02:56:49.111Z,25.82
2018-07-28T02:57:49.180Z,25.8
2018-07-28T02:58:49.309Z,25.78
2018-07-28T02:59:49.209Z,25.74
2018-07-28T03:00:49.121Z,25.73
2018-07-28T03:01:49.132Z,25.73
2018-07-28T03:02:49.507Z,25.73
2018-07-28T03:03:49.186Z,25.71
2018-07-28T03:04:49.137Z,25.69
2018-07-28T03:05:49.279Z,25.67
2018-07-28T03:06:49.158Z,25.66
2018-07-28T03:07:49.169Z,25.67
2018-07-28T03:08:49.295Z,25.67
2018-07-28T03:09:49.147Z,25.66
2018-07-28T03:10:49.167Z,25.65
2018-07-28T03:11:49.226Z,25.62
2018-07-28T03:12:49.601Z,25.62
2018-07-28T03:13:49.115Z,25.63
2018-07-28T03:14:49.150Z,25.61
2018-07-28T03:15:49.093Z,25.63
2018-07-28T03:16:49.123Z,25.62
2018-07-28T03:17:49.126Z,25.61
2018-07-28T03:18:49.186Z,25.63
2018-07-28T03:19:49.123Z,25.6
2018-07-28T03:20:49.109Z,25.62
2018-07-28T03:21:49.171Z,25.61
2018-07-28T03:22:49.124Z,25.59
2018-07-28T03:23:49.102Z,25.59
2018-07-28T03:24:49.108Z,25.57
2018-07-28T03:25:49.145Z,25.54
2018-07-28T03:26:49.172Z,25.53
2018-07-28T03:27:49.107Z,25.53
2018-07-28T03:28:49.081Z,25.52
2018-07-28T03:29:49.082Z,25.52
2018-07-28T03:30:49.210Z,25.51
2018-07-28T03:31:49.113Z,25.5
2018-07-28T03:32:49.099Z,25.47
2018-07-28T03:33:49.094Z,25.48
2018-07-28T03:34:49.118Z,25.47
2018-07-28T03:35:49.137Z,25.49
2018-07-28T03:36:49.108Z,25.45
2018-07-28T03:37:49.104Z,25.44
2018-07-28T03:38:49.137Z,25.44
2018-07-28T03:39:49.117Z,25.44
2018-07-28T03:40:49.123Z,25.4
2018-07-28T03:41:49.084Z,25.35
2018-07-28T03:42:49.091Z,25.33
2018-07-28T03:43:49.105Z,25.34
2018-07-28T03:44:49.149Z,25.33
2018-07-28T03:45:49.350Z,25.33
2018-07-28T03:46:49.138Z,25.33
2018-07-28T03:47:49.115Z,25.32
2018-07-28T03:48:49.177Z,25.26
2018-07-28T03:49:49.129Z,25.27
2018-07-28T03:50:49.242Z,25.27
2018-07-28T03:51:49.094Z,25.27
2018-07-28T03:52:49.092Z,25.26
2018-07-28T03:53:49.142Z,25.26
2018-07-28T03:54:49.114Z,25.26
2018-07-28T03:55:49.067Z,25.25
2018-07-28T03:56:49.317Z,25.22
2018-07-28T03:57:49.185Z,25.19
2018-07-28T03:58:49.131Z,25.15
2018-07-28T03:59:49.192Z,25.15
2018-07-28T04:00:49.203Z,25.11
2018-07-28T04:01:49.136Z,25.11
2018-07-28T04:02:49.158Z,25.11
2018-07-28T04:03:49.144Z,25.07
2018-07-28T04:04:49.102Z,25.06
2018-07-28T04:05:49.137Z,25.03
2018-07-28T04:06:49.064Z,25.03
2018-07-28T04:07:49.160Z,25.01
2018-07-28T04:08:49.117Z,25.02
2018-07-28T04:09:49.473Z,25.01
2018-07-28T04:10:49.124Z,24.99
2018-07-28T04:11:49.096Z,24.99
2018-07-28T04:12:49.082Z,24.98
2018-07-28T04:13:49.111Z,24.96
2018-07-28T04:14:49.119Z,24.95
2018-07-28T04:15:49.123Z,24.94
2018-07-28T04:16:49.102Z,24.94
2018-07-28T04:17:49.132Z,24.93
2018-07-28T04:18:49.099Z,24.92
2018-07-28T04:19:49.145Z,24.89
2018-07-28T04:20:49.091Z,24.89
2018-07-28T04:21:49.080Z,24.86
2018-07-28T04:22:49.114Z,24.86
2018-07-28T04:23:49.263Z,24.86
2018-07-28T04:24:49.119Z,24.86
2018-07-28T04:25:49.109Z,24.84
2018-07-28T04:26:49.232Z,24.84
2018-07-28T04:27:49.106Z,24.83
2018-07-28T04:28:49.105Z,24.82
2018-07-28T04:29:49.164Z,24.81
2018-07-28T04:30:49.089Z,24.79
2018-07-28T04:31:49.078Z,24.76
2018-07-28T04:32:49.094Z,24.77
2018-07-28T04:33:49.211Z,24.77
2018-07-28T04:34:49.081Z,24.77
2018-07-28T04:35:49.226Z,24.76
2018-07-28T04:36:49.129Z,24.76
2018-07-28T04:37:49.120Z,24.75
2018-07-28T04:38:49.076Z,24.74
2018-07-28T04:39:49.070Z,24.7
2018-07-28T04:40:49.095Z,24.7
2018-07-28T04:41:49.112Z,24.7
2018-07-28T04:42:49.077Z,24.69
2018-07-28T04:43:49.086Z,24.7
2018-07-28T04:44:49.088Z,24.69
2018-07-28T04:45:49.084Z,24.67
2018-07-28T04:46:49.127Z,24.69
2018-07-28T04:47:49.096Z,24.67
2018-07-28T04:48:49.065Z,24.69
2018-07-28T04:49:49.086Z,24.67
2018-07-28T04:50:49.245Z,24.66
2018-07-28T04:51:49.091Z,24.65
2018-07-28T04:52:49.096Z,24.66
2018-07-28T04:53:49.227Z,24.65
2018-07-28T04:54:49.168Z,24.66
2018-07-28T04:55:49.233Z,24.66
2018-07-28T04:56:49.065Z,24.67
2018-07-28T04:57:49.441Z,24.66
2018-07-28T04:58:49.396Z,24.69
2018-07-28T04:59:49.280Z,24.66
2018-07-28T05:00:49.108Z,24.68
2018-07-28T05:01:49.073Z,24.71
2018-07-28T05:02:49.102Z,24.71
2018-07-28T05:03:49.163Z,24.72
2018-07-28T05:04:49.102Z,24.73
2018-07-28T05:05:49.096Z,24.73
2018-07-28T05:06:49.352Z,24.73
2018-07-28T05:07:49.069Z,24.75
2018-07-28T05:08:49.272Z,24.76
2018-07-28T05:09:49.074Z,24.76
2018-07-28T05:10:49.081Z,24.78
2018-07-28T05:11:49.171Z,24.78
2018-07-28T05:12:49.261Z,24.79
2018-07-28T05:13:49.100Z,24.8
2018-07-28T05:14:49.197Z,24.83
2018-07-28T05:15:49.734Z,24.82
2018-07-28T05:16:49.186Z,24.83
2018-07-28T05:17:49.346Z,24.83
2018-07-28T05:18:49.557Z,24.84
2018-07-28T05:19:49.306Z,24.84
2018-07-28T05:20:49.161Z,24.85
2018-07-28T05:21:49.134Z,24.86
2018-07-28T05:22:49.108Z,24.88
2018-07-28T05:23:49.663Z,24.89
2018-07-28T05:24:49.124Z,24.9
2018-07-28T05:25:49.339Z,24.91
2018-07-28T05:26:49.180Z,24.93
2018-07-28T05:27:49.118Z,24.94
2018-07-28T05:28:49.903Z,24.96
2018-07-28T05:29:49.187Z,24.95
2018-07-28T05:30:49.201Z,24.96
2018-07-28T05:31:49.346Z,24.96
2018-07-28T05:32:49.104Z,24.96
2018-07-28T05:33:49.112Z,25.01
2018-07-28T05:34:49.099Z,24.96
2018-07-28T05:35:49.067Z,24.95
2018-07-28T05:36:49.099Z,24.95
2018-07-28T05:37:49.196Z,24.97
2018-07-28T05:38:49.070Z,24.96
2018-07-28T05:39:49.106Z,24.94
2018-07-28T05:40:49.509Z,24.96
2018-07-28T05:41:49.378Z,24.95
2018-07-28T05:42:49.960Z,24.93
2018-07-28T05:43:49.174Z,24.95
2018-07-28T05:44:49.256Z,24.98
2018-07-28T05:45:49.132Z,25
2018-07-28T05:46:49.109Z,25.01
2018-07-28T05:47:49.157Z,25.02
2018-07-28T05:48:49.089Z,25.03
2018-07-28T05:49:49.082Z,25.06
2018-07-28T05:50:49.075Z,25.06
2018-07-28T05:51:49.119Z,25.03
2018-07-28T05:52:49.077Z,25.04
2018-07-28T05:53:49.046Z,25.05
2018-07-28T05:54:49.123Z,25.07
2018-07-28T05:55:49.059Z,25.07
2018-07-28T05:56:49.070Z,25.08
2018-07-28T05:57:49.104Z,25.09
2018-07-28T05:58:49.083Z,25.09
2018-07-28T05:59:49.079Z,25.08
2018-07-28T06:00:49.106Z,25.08
2018-07-28T06:01:49.119Z,25.08
2018-07-28T06:02:49.622Z,25.08
2018-07-28T06:03:49.093Z,25.1
2018-07-28T06:04:49.087Z,25.11
2018-07-28T06:05:49.074Z,25.12
2018-07-28T06:06:49.079Z,25.12
2018-07-28T06:07:49.108Z,25.1
2018-07-28T06:08:49.057Z,25.11
2018-07-28T06:09:49.134Z,25.13
2018-07-28T06:10:49.739Z,25.14
2018-07-28T06:11:49.040Z,25.16
2018-07-28T06:12:49.128Z,25.2
2018-07-28T06:13:49.203Z,25.21
2018-07-28T06:14:49.143Z,25.23
2018-07-28T06:15:49.547Z,25.25
2018-07-28T06:16:49.146Z,25.27
2018-07-28T06:17:49.071Z,25.27
2018-07-28T06:18:49.091Z,25.31
2018-07-28T06:19:49.112Z,25.31
2018-07-28T06:20:49.164Z,25.32
2018-07-28T06:21:49.345Z,25.33
2018-07-28T06:22:49.105Z,25.32
2018-07-28T06:23:49.153Z,25.23
2018-07-28T06:24:49.221Z,25.16
2018-07-28T06:25:49.334Z,25.1
2018-07-28T06:26:49.139Z,25.09
2018-07-28T06:27:49.256Z,25.08
2018-07-28T06:28:49.172Z,25.07
2018-07-28T06:29:49.127Z,24.96
2018-07-28T06:30:49.128Z,24.93
2018-07-28T06:31:50.113Z,24.9
2018-07-28T06:32:49.155Z,24.89
2018-07-28T06:33:49.365Z,24.86
2018-07-28T06:34:49.116Z,24.76
2018-07-28T06:35:49.091Z,24.78
2018-07-28T06:36:49.148Z,24.78
2018-07-28T06:37:49.230Z,24.76
2018-07-28T06:38:49.182Z,24.73
2018-07-28T06:39:49.175Z,24.75
2018-07-28T06:40:49.078Z,24.75
2018-07-28T06:41:49.115Z,24.77
2018-07-28T06:42:49.066Z,24.76
2018-07-28T06:43:49.128Z,24.76
2018-07-28T06:44:49.232Z,24.78
2018-07-28T06:45:49.088Z,24.76
2018-07-28T06:46:49.339Z,24.8
2018-07-28T06:47:49.174Z,24.8
2018-07-28T06:48:49.086Z,24.81
2018-07-28T06:49:49.120Z,24.81
2018-07-28T06:50:49.097Z,24.77
2018-07-28T06:51:49.460Z,24.75
2018-07-28T06:52:49.168Z,24.8
2018-07-28T06:53:50.117Z,24.81
2018-07-28T06:54:49.036Z,24.8
2018-07-28T06:55:49.142Z,24.79
2018-07-28T06:56:49.209Z,24.82
2018-07-28T06:57:49.050Z,24.83
2018-07-28T06:58:49.163Z,24.85
2018-07-28T06:59:49.130Z,24.87
2018-07-28T07:00:49.074Z,24.85
2018-07-28T07:01:49.446Z,24.86
2018-07-28T07:02:49.077Z,24.87
2018-07-28T07:03:49.027Z,24.92
2018-07-28T07:04:49.858Z,24.94
2018-07-28T07:05:49.175Z,24.95
2018-07-28T07:06:49.168Z,24.98
2018-07-28T07:07:49.074Z,25
2018-07-28T07:08:49.040Z,25.01
2018-07-28T07:09:49.089Z,25.05
2018-07-28T07:10:49.128Z,25.08
2018-07-28T07:11:49.072Z,25.13
2018-07-28T07:12:49.097Z,25.13
2018-07-28T07:13:49.085Z,25.14
2018-07-28T07:14:49.158Z,25.17
2018-07-28T07:15:49.067Z,25.21
2018-07-28T07:16:49.063Z,25.25
2018-07-28T07:17:49.053Z,25.27
2018-07-28T07:18:49.091Z,25.31
2018-07-28T07:19:49.064Z,25.26
2018-07-28T07:20:49.048Z,25.27
2018-07-28T07:21:49.055Z,25.28
2018-07-28T07:22:49.100Z,25.32
2018-07-28T07:23:49.053Z,25.31
2018-07-28T07:24:49.761Z,25.33
2018-07-28T07:25:49.121Z,25.3
2018-07-28T07:26:49.097Z,25.32
2018-07-28T07:27:49.082Z,25.33
2018-07-28T07:28:49.160Z,25.31
2018-07-28T07:29:49.285Z,25.28
2018-07-28T07:30:49.170Z,25.34
2018-07-28T07:31:49.248Z,25.34
2018-07-28T07:32:49.176Z,25.39
2018-07-28T07:33:49.286Z,25.4
2018-07-28T07:34:49.098Z,25.44
2018-07-28T07:35:49.171Z,25.46
2018-07-28T07:36:49.151Z,25.48
2018-07-28T07:37:49.118Z,25.52
2018-07-28T07:38:49.040Z,25.53
2018-07-28T07:39:49.113Z,25.55
2018-07-28T07:40:49.433Z,25.57
2018-07-28T07:41:50.158Z,25.58
2018-07-28T07:42:49.195Z,25.6
2018-07-28T07:43:49.120Z,25.63
2018-07-28T07:44:49.147Z,25.65
2018-07-28T07:45:49.142Z,25.64
2018-07-28T07:46:49.394Z,25.65
2018-07-28T07:47:49.099Z,25.66
2018-07-28T07:48:49.238Z,25.7
2018-07-28T07:49:49.168Z,25.7
2018-07-28T07:50:49.157Z,25.71
2018-07-28T07:51:49.117Z,25.7
2018-07-28T07:52:49.112Z,25.7
2018-07-28T07:53:49.511Z,25.71
2018-07-28T07:54:49.144Z,25.71
2018-07-28T07:55:49.128Z,25.7
2018-07-28T07:56:49.092Z,25.62
2018-07-28T07:57:49.327Z,25.65
2018-07-28T07:58:49.242Z,25.64
2018-07-28T07:59:49.119Z,25.62
2018-07-28T08:00:49.170Z,25.55
2018-07-28T08:01:49.192Z,25.52
2018-07-28T08:02:49.137Z,25.47
2018-07-28T08:03:49.179Z,25.49
2018-07-28T08:04:49.526Z,25.53
2018-07-28T08:05:49.219Z,25.55
2018-07-28T08:06:49.134Z,25.55
2018-07-28T08:07:49.399Z,25.58
2018-07-28T08:08:49.201Z,25.62
2018-07-28T08:09:49.092Z,25.64
2018-07-28T08:10:49.231Z,25.68
2018-07-28T08:11:49.092Z,25.7
2018-07-28T08:12:49.037Z,25.71
2018-07-28T08:13:49.107Z,25.74
2018-07-28T08:14:49.113Z,25.74
2018-07-28T08:15:49.123Z,25.77
2018-07-28T08:16:49.092Z,25.8
2018-07-28T08:17:49.124Z,25.82
2018-07-28T08:18:49.111Z,25.81
2018-07-28T08:19:49.072Z,25.83
2018-07-28T08:20:49.077Z,25.84
2018-07-28T08:21:49.113Z,25.86
2018-07-28T08:22:49.118Z,25.87
2018-07-28T08:23:49.032Z,25.89
2018-07-28T08:24:49.367Z,25.91
2018-07-28T08:25:49.076Z,25.95
2018-07-28T08:26:50.072Z,25.97
2018-07-28T08:27:49.065Z,26.02
2018-07-28T08:28:49.034Z,26.04
2018-07-28T08:29:49.071Z,26.02
2018-07-28T08:30:49.097Z,26.08
2018-07-28T08:31:49.137Z,26.1
2018-07-28T08:32:49.048Z,26.16
2018-07-28T08:33:49.149Z,26.19
2018-07-28T08:34:49.120Z,26.22
2018-07-28T08:35:49.022Z,26.25
2018-07-28T08:36:49.011Z,26.26
2018-07-28T08:37:49.535Z,26.25
2018-07-28T08:38:49.031Z,26.26
2018-07-28T08:39:49.427Z,26.26
2018-07-28T08:40:49.089Z,26.27
2018-07-28T08:41:49.039Z,26.3
2018-07-28T08:42:49.114Z,26.31
2018-07-28T08:43:49.124Z,26.31
2018-07-28T08:44:49.126Z,26.33
2018-07-28T08:45:49.083Z,26.37
2018-07-28T08:46:49.227Z,26.41
2018-07-28T08:47:49.121Z,26.47
2018-07-28T08:48:49.605Z,26.53
2018-07-28T08:49:49.049Z,26.59
2018-07-28T08:50:49.089Z,26.69
2018-07-28T08:51:49.215Z,26.72
2018-07-28T08:52:49.165Z,26.79
2018-07-28T08:53:49.211Z,26.85
2018-07-28T08:54:49.180Z,26.91
2018-07-28T08:55:49.225Z,26.96
2018-07-28T08:56:49.344Z,27.01
2018-07-28T08:57:49.085Z,27.04
2018-07-28T08:58:49.134Z,27.1
2018-07-28T08:59:49.251Z,27.18
2018-07-28T09:00:49.275Z,27.19
2018-07-28T09:01:49.037Z,27.2
2018-07-28T09:02:49.163Z,27.24
2018-07-28T09:03:49.388Z,27.24
2018-07-28T09:04:49.185Z,27.24
2018-07-28T09:05:49.583Z,27.23
2018-07-28T09:06:49.192Z,27.19
2018-07-28T09:07:49.204Z,27.16
2018-07-28T09:08:49.113Z,27.17
2018-07-28T09:09:49.165Z,27.13
2018-07-28T09:10:49.115Z,27.14
2018-07-28T09:11:49.027Z,27.14
2018-07-28T09:12:49.126Z,27.13
2018-07-28T09:13:49.351Z,27.13
2018-07-28T09:14:49.242Z,27.16
2018-07-28T09:15:49.132Z,27.22
2018-07-28T09:16:49.159Z,27.3
2018-07-28T09:17:49.516Z,27.37
2018-07-28T09:18:49.067Z,27.4
2018-07-28T09:19:49.087Z,27.43
2018-07-28T09:20:49.109Z,27.47
2018-07-28T09:21:49.192Z,27.52
2018-07-28T09:22:49.201Z,27.56
2018-07-28T09:23:49.204Z,27.59
2018-07-28T09:24:49.115Z,27.62
2018-07-28T09:25:49.139Z,27.72
2018-07-28T09:26:49.311Z,27.78
2018-07-28T09:27:49.099Z,27.84
2018-07-28T09:28:49.035Z,27.88
2018-07-28T09:29:49.092Z,27.89
2018-07-28T09:30:49.128Z,27.87
2018-07-28T09:31:49.033Z,27.85
2018-07-28T09:32:49.160Z,27.82
2018-07-28T09:33:49.201Z,27.8
2018-07-28T09:34:49.228Z,27.79
2018-07-28T09:35:49.050Z,27.81
2018-07-28T09:36:50.153Z,27.79
2018-07-28T09:37:50.105Z,27.8
2018-07-28T09:38:49.188Z,27.81
2018-07-28T09:39:49.216Z,27.81
2018-07-28T09:40:49.217Z,27.87
2018-07-28T09:41:49.331Z,27.97
2018-07-28T09:42:49.247Z,27.95
2018-07-28T09:43:49.041Z,28
2018-07-28T09:44:49.072Z,28.07
2018-07-28T09:45:49.074Z,28.11
2018-07-28T09:46:49.050Z,28.17
2018-07-28T09:47:49.071Z,28.18
2018-07-28T09:48:49.066Z,28.17
2018-07-28T09:49:49.107Z,28.18
2018-07-28T09:50:49.061Z,28.18
2018-07-28T09:51:49.292Z,28.18
2018-07-28T09:52:49.184Z,28.18
2018-07-28T09:53:49.019Z,28.19
2018-07-28T09:54:49.233Z,28.22
2018-07-28T09:55:49.066Z,28.27
2018-07-28T09:56:49.028Z,28.3
2018-07-28T09:57:49.092Z,28.33
2018-07-28T09:58:49.037Z,28.36
2018-07-28T09:59:49.025Z,28.37
2018-07-28T10:00:49.257Z,28.39
2018-07-28T10:01:49.033Z,28.43
2018-07-28T10:02:49.253Z,28.46
2018-07-28T10:03:49.015Z,28.44
2018-07-28T10:04:49.095Z,28.5
2018-07-28T10:05:49.066Z,28.57
2018-07-28T10:06:49.301Z,28.64
2018-07-28T10:07:49.334Z,28.68
2018-07-28T10:08:49.036Z,28.7
2018-07-28T10:09:49.034Z,28.67
2018-07-28T10:10:49.205Z,28.7
2018-07-28T10:11:49.315Z,28.71
2018-07-28T10:12:49.108Z,28.78
2018-07-28T10:13:49.089Z,28.84
2018-07-28T10:14:49.147Z,28.87
2018-07-28T10:15:49.145Z,28.86
2018-07-28T10:16:49.026Z,28.89
2018-07-28T10:17:49.210Z,28.93
2018-07-28T10:18:49.134Z,28.91
2018-07-28T10:19:49.004Z,28.82
2018-07-28T10:20:49.295Z,28.85
2018-07-28T10:21:49.197Z,28.83
2018-07-28T10:22:49.416Z,28.82
2018-07-28T10:23:49.083Z,28.75
2018-07-28T10:24:49.020Z,28.66
2018-07-28T10:25:49.210Z,28.62
2018-07-28T10:26:49.065Z,28.66
2018-07-28T10:27:49.100Z,28.6
2018-07-28T10:28:49.017Z,28.53
2018-07-28T10:29:49.124Z,28.57
2018-07-28T10:30:49.131Z,28.63
2018-07-28T10:31:49.129Z,28.69
2018-07-28T10:32:49.036Z,28.74
2018-07-28T10:33:49.072Z,28.76
2018-07-28T10:34:49.360Z,28.78
2018-07-28T10:35:49.086Z,28.79
2018-07-28T10:36:49.313Z,28.81
2018-07-28T10:37:49.154Z,28.78
2018-07-28T10:38:49.212Z,28.74
2018-07-28T10:39:49.158Z,28.76
2018-07-28T10:40:49.126Z,28.75
2018-07-28T10:41:49.126Z,28.79
2018-07-28T10:42:49.143Z,28.76
2018-07-28T10:43:49.023Z,28.74
2018-07-28T10:44:49.162Z,28.68
2018-07-28T10:45:49.035Z,28.74
2018-07-28T10:46:49.100Z,28.79
2018-07-28T10:47:49.151Z,28.81
2018-07-28T10:48:49.152Z,28.83
2018-07-28T10:49:49.109Z,28.85
2018-07-28T10:50:49.155Z,28.9
2018-07-28T10:51:49.689Z,28.97
2018-07-28T10:52:49.277Z,28.98
2018-07-28T10:53:49.398Z,29.02
2018-07-28T10:54:49.253Z,29.01
2018-07-28T10:55:49.275Z,28.99
2018-07-28T10:56:49.105Z,28.98
2018-07-28T10:57:49.120Z,28.94
2018-07-28T10:58:49.149Z,28.96
2018-07-28T10:59:49.085Z,29.02
2018-07-28T11:00:49.126Z,29.08
2018-07-28T11:01:49.130Z,29.11
2018-07-28T11:02:48.945Z,29.2
2018-07-28T11:03:49.036Z,29.2
2018-07-28T11:04:49.108Z,29.22
2018-07-28T11:05:49.076Z,29.25
2018-07-28T11:06:49.227Z,29.28
2018-07-28T11:07:49.079Z,29.29
2018-07-28T11:08:49.023Z,29.32
2018-07-28T11:09:49.038Z,29.34
2018-07-28T11:10:49.112Z,29.39
2018-07-28T11:11:49.127Z,29.43
2018-07-28T11:12:49.207Z,29.41
2018-07-28T11:13:49.201Z,29.41
2018-07-28T11:14:49.158Z,29.44
2018-07-28T11:15:49.165Z,29.38
2018-07-28T11:16:49.101Z,29.41
2018-07-28T11:17:49.117Z,29.45
2018-07-28T11:18:49.407Z,29.47
2018-07-28T11:19:49.074Z,29.51
2018-07-28T11:20:49.093Z,29.51
2018-07-28T11:21:49.245Z,29.54
2018-07-28T11:22:49.042Z,29.6
2018-07-28T11:23:49.186Z,29.63
2018-07-28T11:24:49.100Z,29.67
2018-07-28T11:25:49.546Z,29.7
2018-07-28T11:26:49.159Z,29.75
2018-07-28T11:27:49.072Z,29.77
2018-07-28T11:28:49.150Z,29.71
2018-07-28T11:29:49.159Z,29.76
2018-07-28T11:30:49.266Z,29.81
2018-07-28T11:31:49.781Z,29.81
2018-07-28T11:32:49.248Z,29.9
2018-07-28T11:33:49.133Z,29.95
2018-07-28T11:34:49.161Z,29.97
2018-07-28T11:35:49.160Z,30
2018-07-28T11:36:49.117Z,29.92
2018-07-28T11:37:49.640Z,29.98
2018-07-28T11:38:49.160Z,30.01
2018-07-28T11:39:49.086Z,30.01
2018-07-28T11:40:49.075Z,30.02
2018-07-28T11:41:49.115Z,30.01
2018-07-28T11:42:49.163Z,30.1
2018-07-28T11:43:49.122Z,30.16
2018-07-28T11:44:49.082Z,30.22
2018-07-28T11:45:49.565Z,30.27
2018-07-28T11:46:49.201Z,30.29
2018-07-28T11:47:49.111Z,30.28
2018-07-28T11:48:49.131Z,30.31
2018-07-28T11:49:49.116Z,30.25
2018-07-28T11:50:49.145Z,30.3
2018-07-28T11:51:49.227Z,30.34
2018-07-28T11:52:49.157Z,30.4
2018-07-28T11:53:49.106Z,30.42
2018-07-28T11:54:49.167Z,30.37
2018-07-28T11:55:49.252Z,30.33
2018-07-28T11:56:49.114Z,30.42
2018-07-28T11:57:49.145Z,30.39
2018-07-28T11:58:49.297Z,30.38
2018-07-28T11:59:49.129Z,30.38
2018-07-28T12:00:49.125Z,30.38
2018-07-28T12:01:50.134Z,30.45
2018-07-28T12:02:49.145Z,30.51
2018-07-28T12:03:49.115Z,30.6
2018-07-28T12:04:49.107Z,30.65
2018-07-28T12:05:49.149Z,30.71
2018-07-28T12:06:49.097Z,30.65
2018-07-28T12:07:49.111Z,30.65
2018-07-28T12:08:49.103Z,30.65
2018-07-28T12:09:49.115Z,30.6
2018-07-28T12:10:49.105Z,30.62
2018-07-28T12:11:49.228Z,30.56
2018-07-28T12:12:49.104Z,30.61
2018-07-28T12:13:49.160Z,30.63
2018-07-28T12:14:49.404Z,30.71
2018-07-28T12:15:49.155Z,30.72
2018-07-28T12:16:49.246Z,30.7
2018-07-28T12:17:49.095Z,30.71
2018-07-28T12:18:49.149Z,30.68
2018-07-28T12:19:49.149Z,30.64
2018-07-28T12:20:49.129Z,30.58
2018-07-28T12:21:49.135Z,30.51
2018-07-28T12:22:49.112Z,30.41
2018-07-28T12:23:49.414Z,30.38
2018-07-28T12:24:49.099Z,30.39
2018-07-28T12:25:49.182Z,30.39
2018-07-28T12:26:49.168Z,30.36
2018-07-28T12:27:49.130Z,30.41
2018-07-28T12:28:49.141Z,30.36
2018-07-28T12:29:49.218Z,30.35
2018-07-28T12:30:49.158Z,30.37
2018-07-28T12:31:49.132Z,30.45
2018-07-28T12:32:49.123Z,30.45
2018-07-28T12:33:49.333Z,30.51
2018-07-28T12:34:49.629Z,30.58
2018-07-28T12:35:49.265Z,30.59
2018-07-28T12:36:49.338Z,30.64
2018-07-28T12:37:49.131Z,30.7
2018-07-28T12:38:49.147Z,30.78
2018-07-28T12:39:49.181Z,30.86
2018-07-28T12:40:49.179Z,30.84
2018-07-28T12:41:49.158Z,30.87
2018-07-28T12:42:49.228Z,30.84
2018-07-28T12:43:49.116Z,30.84
2018-07-28T12:44:49.308Z,30.79
2018-07-28T12:45:49.246Z,30.79
2018-07-28T12:46:49.183Z,30.79
2018-07-28T12:47:49.207Z,30.76
2018-07-28T12:48:49.122Z,30.76
2018-07-28T12:49:49.233Z,30.81
2018-07-28T12:50:49.208Z,30.82
2018-07-28T12:51:49.191Z,30.82
2018-07-28T12:52:49.168Z,30.81
2018-07-28T12:53:49.167Z,30.79
2018-07-28T12:54:49.273Z,30.79
2018-07-28T12:55:49.168Z,30.88